SCOT15 YBOK-YBOK
Flight info
| Callsign | SCOT15 |
|---|---|
| Flight time | 0h 26m |
| Altitude | 14000 |
| Route | DCT OK TWB OK DCT |
| Aircraft | EC35/L-VGD/C |
Departure
| Time | 2026-04-20 03:16 |
|---|---|
| Airport | Oakey Army Aviation Centre (YBOK) |
Arrival
| Time | 2026-04-20 03:43 |
|---|---|
| Airport | Oakey Army Aviation Centre (YBOK) |
| Time | Latitude | Longitude | Altitude | Speed | Heading |
|---|---|---|---|---|---|
| 2026-04-20 03:16 | -27.45774 | 151.80158 | 2490 ft | 106 kts | 137° |
| 2026-04-20 03:16 | -27.46289 | 151.80736 | 2655 ft | 103 kts | 136° |
| 2026-04-20 03:17 | -27.46788 | 151.81296 | 2823 ft | 100 kts | 136° |
| 2026-04-20 03:17 | -27.47271 | 151.81837 | 2989 ft | 97 kts | 136° |
| 2026-04-20 03:17 | -27.47744 | 151.82365 | 3138 ft | 95 kts | 136° |
| 2026-04-20 03:17 | -27.48213 | 151.82887 | 3290 ft | 95 kts | 136° |
| 2026-04-20 03:18 | -27.48690 | 151.83420 | 3390 ft | 99 kts | 136° |
| 2026-04-20 03:18 | -27.49203 | 151.83992 | 3426 ft | 108 kts | 136° |
| 2026-04-20 03:18 | -27.49757 | 151.84610 | 3425 ft | 115 kts | 136° |
| 2026-04-20 03:18 | -27.50342 | 151.85260 | 3418 ft | 120 kts | 136° |
| 2026-04-20 03:19 | -27.50941 | 151.85925 | 3409 ft | 122 kts | 136° |
| 2026-04-20 03:19 | -27.51545 | 151.86594 | 3411 ft | 123 kts | 136° |
| 2026-04-20 03:19 | -27.52165 | 151.87282 | 3410 ft | 124 kts | 136° |
| 2026-04-20 03:19 | -27.52363 | 151.87502 | 3410 ft | 124 kts | 136° |
| 2026-04-20 03:20 | -27.52455 | 151.87603 | 3410 ft | 124 kts | 136° |
| 2026-04-20 03:20 | -27.53070 | 151.88286 | 3392 ft | 125 kts | 136° |
| 2026-04-20 03:20 | -27.53681 | 151.88967 | 3400 ft | 122 kts | 136° |
| 2026-04-20 03:21 | -27.54286 | 151.89641 | 3409 ft | 122 kts | 136° |
| 2026-04-20 03:21 | -27.54889 | 151.90310 | 3411 ft | 122 kts | 136° |
| 2026-04-20 03:21 | -27.55333 | 151.91088 | 3392 ft | 122 kts | 96° |
| 2026-04-20 03:21 | -27.54925 | 151.91881 | 3356 ft | 126 kts | 29° |
| 2026-04-20 03:22 | -27.54099 | 151.91780 | 3360 ft | 126 kts | 321° |
| 2026-04-20 03:22 | -27.53683 | 151.90929 | 3388 ft | 124 kts | 290° |
| 2026-04-20 03:22 | -27.53405 | 151.90015 | 3409 ft | 123 kts | 287° |
| 2026-04-20 03:22 | -27.53142 | 151.89097 | 3413 ft | 124 kts | 287° |
| 2026-04-20 03:23 | -27.52874 | 151.88162 | 3413 ft | 125 kts | 287° |
| 2026-04-20 03:23 | -27.52550 | 151.87259 | 3406 ft | 124 kts | 292° |
| 2026-04-20 03:23 | -27.52128 | 151.86418 | 3394 ft | 120 kts | 313° |
| 2026-04-20 03:23 | -27.51356 | 151.86082 | 3406 ft | 121 kts | 343° |
| 2026-04-20 03:24 | -27.50588 | 151.85705 | 3418 ft | 121 kts | 330° |
| 2026-04-20 03:24 | -27.49862 | 151.85202 | 3418 ft | 124 kts | 327° |
| 2026-04-20 03:24 | -27.49131 | 151.84677 | 3413 ft | 125 kts | 327° |
| 2026-04-20 03:24 | -27.48396 | 151.84147 | 3409 ft | 125 kts | 327° |
| 2026-04-20 03:25 | -27.47662 | 151.83621 | 3408 ft | 125 kts | 326° |
| 2026-04-20 03:25 | -27.46926 | 151.83098 | 3407 ft | 126 kts | 326° |
| 2026-04-20 03:25 | -27.46185 | 151.82569 | 3407 ft | 127 kts | 326° |
| 2026-04-20 03:25 | -27.45445 | 151.82028 | 3401 ft | 127 kts | 323° |
| 2026-04-20 03:26 | -27.44769 | 151.81397 | 3403 ft | 126 kts | 317° |
| 2026-04-20 03:26 | -27.44112 | 151.80736 | 3401 ft | 127 kts | 316° |
| 2026-04-20 03:26 | -27.43458 | 151.80068 | 3399 ft | 127 kts | 316° |
| 2026-04-20 03:26 | -27.42804 | 151.79401 | 3394 ft | 126 kts | 316° |
| 2026-04-20 03:27 | -27.42158 | 151.78740 | 3392 ft | 125 kts | 316° |
| 2026-04-20 03:27 | -27.41512 | 151.78080 | 3393 ft | 125 kts | 316° |
| 2026-04-20 03:27 | -27.40868 | 151.77425 | 3392 ft | 125 kts | 316° |
| 2026-04-20 03:27 | -27.40221 | 151.76770 | 3386 ft | 125 kts | 316° |
| 2026-04-20 03:28 | -27.39572 | 151.76117 | 3385 ft | 125 kts | 316° |
| 2026-04-20 03:28 | -27.38931 | 151.75476 | 3363 ft | 126 kts | 316° |
| 2026-04-20 03:28 | -27.37632 | 151.74179 | 3370 ft | 125 kts | 316° |
| 2026-04-20 03:29 | -27.36982 | 151.73530 | 3373 ft | 125 kts | 316° |
| 2026-04-20 03:29 | -27.36333 | 151.72881 | 3378 ft | 125 kts | 316° |
| 2026-04-20 03:29 | -27.35687 | 151.72232 | 3382 ft | 125 kts | 316° |
| 2026-04-20 03:29 | -27.35040 | 151.71578 | 3377 ft | 126 kts | 316° |
| 2026-04-20 03:30 | -27.34389 | 151.70917 | 3376 ft | 126 kts | 316° |
| 2026-04-20 03:30 | -27.33734 | 151.70255 | 3373 ft | 126 kts | 316° |
| 2026-04-20 03:30 | -27.33081 | 151.69596 | 3367 ft | 126 kts | 316° |
| 2026-04-20 03:30 | -27.32425 | 151.68938 | 3366 ft | 126 kts | 316° |
| 2026-04-20 03:31 | -27.31774 | 151.68286 | 3362 ft | 125 kts | 316° |
| 2026-04-20 03:31 | -27.31127 | 151.67638 | 3362 ft | 124 kts | 316° |
| 2026-04-20 03:31 | -27.30476 | 151.66988 | 3366 ft | 126 kts | 316° |
| 2026-04-20 03:31 | -27.29820 | 151.66335 | 3361 ft | 126 kts | 316° |
| 2026-04-20 03:32 | -27.29167 | 151.65684 | 3355 ft | 125 kts | 316° |
| 2026-04-20 03:32 | -27.28736 | 151.65255 | 3352 ft | 125 kts | 316° |
| 2026-04-20 03:32 | -27.27871 | 151.64384 | 3348 ft | 124 kts | 316° |
| 2026-04-20 03:32 | -27.27448 | 151.63957 | 3349 ft | 123 kts | 316° |
| 2026-04-20 03:33 | -27.26812 | 151.63317 | 3347 ft | 122 kts | 316° |
| 2026-04-20 03:33 | -27.26176 | 151.62680 | 3341 ft | 121 kts | 319° |
| 2026-04-20 03:33 | -27.25373 | 151.62512 | 3329 ft | 121 kts | 5° |
| 2026-04-20 03:33 | -27.24537 | 151.62644 | 3340 ft | 122 kts | 8° |
| 2026-04-20 03:34 | -27.23684 | 151.62807 | 3342 ft | 126 kts | 10° |
| 2026-04-20 03:34 | -27.22812 | 151.62972 | 3335 ft | 128 kts | 10° |
| 2026-04-20 03:34 | -27.21938 | 151.63136 | 3330 ft | 127 kts | 10° |
| 2026-04-20 03:34 | -27.21077 | 151.63300 | 3315 ft | 126 kts | 9° |
| 2026-04-20 03:35 | -27.20225 | 151.63465 | 3312 ft | 125 kts | 9° |
| 2026-04-20 03:35 | -27.19458 | 151.63897 | 3317 ft | 127 kts | 57° |
| 2026-04-20 03:35 | -27.19322 | 151.64844 | 3316 ft | 125 kts | 96° |
| 2026-04-20 03:35 | -27.19723 | 151.65639 | 3316 ft | 121 kts | 151° |
| 2026-04-20 03:36 | -27.20545 | 151.65701 | 3302 ft | 119 kts | 187° |
| 2026-04-20 03:36 | -27.21345 | 151.65545 | 3319 ft | 116 kts | 190° |
| 2026-04-20 03:36 | -27.22136 | 151.65369 | 3334 ft | 116 kts | 191° |
| 2026-04-20 03:36 | -27.22928 | 151.65189 | 3340 ft | 116 kts | 190° |
| 2026-04-20 03:37 | -27.23725 | 151.65004 | 3345 ft | 118 kts | 191° |
| 2026-04-20 03:37 | -27.24547 | 151.64840 | 3343 ft | 118 kts | 178° |
| 2026-04-20 03:37 | -27.25330 | 151.65045 | 3341 ft | 117 kts | 166° |
| 2026-04-20 03:37 | -27.26128 | 151.65247 | 3355 ft | 119 kts | 168° |
| 2026-04-20 03:38 | -27.26938 | 151.65436 | 3350 ft | 118 kts | 168° |
| 2026-04-20 03:38 | -27.27747 | 151.65621 | 3355 ft | 119 kts | 168° |
| 2026-04-20 03:38 | -27.28567 | 151.65806 | 3354 ft | 120 kts | 169° |
| 2026-04-20 03:38 | -27.29389 | 151.65989 | 3351 ft | 120 kts | 169° |
| 2026-04-20 03:39 | -27.30210 | 151.66179 | 3357 ft | 121 kts | 169° |
| 2026-04-20 03:39 | -27.31030 | 151.66370 | 3355 ft | 119 kts | 168° |
| 2026-04-20 03:39 | -27.31840 | 151.66560 | 3360 ft | 119 kts | 169° |
| 2026-04-20 03:39 | -27.32648 | 151.66745 | 3352 ft | 118 kts | 169° |
| 2026-04-20 03:40 | -27.33451 | 151.66925 | 3358 ft | 118 kts | 168° |
| 2026-04-20 03:40 | -27.34265 | 151.67106 | 3360 ft | 120 kts | 169° |
| 2026-04-20 03:40 | -27.35083 | 151.67291 | 3355 ft | 120 kts | 168° |
| 2026-04-20 03:40 | -27.35897 | 151.67479 | 3359 ft | 119 kts | 168° |
| 2026-04-20 03:41 | -27.36706 | 151.67666 | 3362 ft | 119 kts | 168° |
| 2026-04-20 03:41 | -27.37513 | 151.67854 | 3360 ft | 118 kts | 168° |
| 2026-04-20 03:41 | -27.38311 | 151.68036 | 3363 ft | 118 kts | 168° |
| 2026-04-20 03:41 | -27.39150 | 151.68225 | 3198 ft | 130 kts | 169° |
| 2026-04-20 03:42 | -27.40003 | 151.68581 | 2835 ft | 138 kts | 148° |
| 2026-04-20 03:42 | -27.40524 | 151.69515 | 2243 ft | 150 kts | 101° |
| 2026-04-20 03:42 | -27.40658 | 151.70610 | 1982 ft | 137 kts | 101° |
| 2026-04-20 03:42 | -27.40790 | 151.71704 | 1571 ft | 137 kts | 100° |
| 2026-04-20 03:43 | -27.40934 | 151.72629 | 1390 ft | 95 kts | 103° |
| 2026-04-20 03:43 | -27.40996 | 151.73082 | 1346 ft | 13 kts | 109° |
| 2026-04-20 03:43 | -27.41013 | 151.73172 | 1361 ft | 30 kts | 112° |
| 2026-04-20 03:43 | -27.41057 | 151.73442 | 1354 ft | 31 kts | 122° |
| 2026-04-20 03:44 | -27.41228 | 151.73458 | 1350 ft | 31 kts | 190° |
| 2026-04-20 03:44 | -27.41321 | 151.73481 | 1346 ft | 1 kts | 45° |
| 2026-04-20 03:44 | -27.41300 | 151.73483 | 1343 ft | 4 kts | 8° |
| 2026-04-20 03:44 | -27.41300 | 151.73482 | 1343 ft | 2 kts | 14° |
| 2026-04-20 03:45 | -27.41296 | 151.73482 | 1344 ft | 1 kts | 13° |
| 2026-04-20 03:45 | -27.41295 | 151.73483 | 1341 ft | 0 kts | 11° |
| 2026-04-20 03:54 | -27.41294 | 151.73483 | 1348 ft | 1 kts | 340° |
| 2026-04-20 03:54 | -27.41281 | 151.73465 | 1352 ft | 6 kts | 316° |
| 2026-04-20 03:54 | -27.41219 | 151.73435 | 1350 ft | 9 kts | 284° |
| 2026-04-20 03:54 | -27.41208 | 151.73352 | 1353 ft | 13 kts | 283° |
| 2026-04-20 03:55 | -27.41175 | 151.73204 | 1390 ft | 27 kts | 280° |
| 2026-04-20 03:55 | -27.41136 | 151.72908 | 1359 ft | 41 kts | 271° |
| 2026-04-20 03:55 | -27.41036 | 151.72855 | 1349 ft | 19 kts | 16° |
| 2026-04-20 03:55 | -27.40979 | 151.72902 | 1356 ft | 18 kts | 111° |
| 2026-04-20 03:56 | -27.41033 | 151.73221 | 1416 ft | 66 kts | 108° |
| 2026-04-20 03:56 | -27.40971 | 151.73794 | 1673 ft | 78 kts | 69° |
| 2026-04-20 03:56 | -27.40565 | 151.74251 | 1886 ft | 91 kts | 34° |
| 2026-04-20 03:56 | -27.39907 | 151.74515 | 1981 ft | 111 kts | 12° |
| 2026-04-20 03:57 | -27.39140 | 151.74682 | 2269 ft | 112 kts | 12° |
| 2026-04-20 03:57 | -27.38393 | 151.74829 | 2644 ft | 105 kts | 11° |
| 2026-04-20 03:57 | -27.37754 | 151.74944 | 3182 ft | 80 kts | 10° |
| 2026-04-20 03:57 | -27.37361 | 151.75005 | 3722 ft | 42 kts | 10° |
| 2026-04-20 03:58 | -27.37073 | 151.75047 | 4037 ft | 48 kts | 10° |
| 2026-04-20 03:58 | -27.36666 | 151.75116 | 4187 ft | 79 kts | 10° |
| 2026-04-20 03:58 | -27.35997 | 151.75242 | 4206 ft | 113 kts | 10° |
| 2026-04-20 03:58 | -27.35165 | 151.75400 | 4350 ft | 120 kts | 10° |
| 2026-04-20 03:59 | -27.34338 | 151.75557 | 4532 ft | 119 kts | 10° |
| 2026-04-20 03:59 | -27.33546 | 151.75711 | 4765 ft | 113 kts | 10° |
| 2026-04-20 03:59 | -27.32775 | 151.75861 | 5001 ft | 112 kts | 11° |
| 2026-04-20 03:59 | -27.32010 | 151.76005 | 5227 ft | 111 kts | 11° |
| 2026-04-20 04:00 | -27.31252 | 151.76146 | 5455 ft | 110 kts | 11° |
| 2026-04-20 04:00 | -27.30499 | 151.76290 | 5677 ft | 109 kts | 11° |
| 2026-04-20 04:00 | -27.29760 | 151.76433 | 5886 ft | 107 kts | 10° |
| 2026-04-20 04:00 | -27.29027 | 151.76576 | 6111 ft | 108 kts | 11° |
| 2026-04-20 04:01 | -27.28287 | 151.76715 | 6327 ft | 107 kts | 11° |
| 2026-04-20 04:01 | -27.27555 | 151.76840 | 6534 ft | 105 kts | 359° |
| 2026-04-20 04:01 | -27.27011 | 151.76367 | 6738 ft | 104 kts | 289° |
| 2026-04-20 04:01 | -27.26798 | 151.75610 | 6943 ft | 101 kts | 282° |
| 2026-04-20 04:02 | -27.26606 | 151.74854 | 7136 ft | 100 kts | 282° |
| 2026-04-20 04:02 | -27.26419 | 151.74105 | 7324 ft | 99 kts | 281° |
| 2026-04-20 04:02 | -27.26228 | 151.73359 | 7513 ft | 100 kts | 282° |
| 2026-04-20 04:02 | -27.26033 | 151.72615 | 7696 ft | 99 kts | 281° |
| 2026-04-20 04:03 | -27.25830 | 151.71877 | 7880 ft | 99 kts | 281° |
| 2026-04-20 04:03 | -27.25621 | 151.71141 | 8051 ft | 99 kts | 281° |
| 2026-04-20 04:03 | -27.25409 | 151.70408 | 8225 ft | 98 kts | 281° |
| 2026-04-20 04:03 | -27.25197 | 151.69679 | 8392 ft | 98 kts | 281° |
| 2026-04-20 04:04 | -27.24980 | 151.68951 | 8559 ft | 98 kts | 281° |
| 2026-04-20 04:04 | -27.24760 | 151.68228 | 8716 ft | 98 kts | 281° |
| 2026-04-20 04:04 | -27.24535 | 151.67511 | 8882 ft | 97 kts | 281° |
| 2026-04-20 04:04 | -27.24306 | 151.66797 | 9035 ft | 97 kts | 281° |
| 2026-04-20 04:05 | -27.24076 | 151.66095 | 9191 ft | 97 kts | 282° |
| 2026-04-20 04:05 | -27.23836 | 151.65377 | 9341 ft | 97 kts | 282° |
| 2026-04-20 04:05 | -27.23598 | 151.64679 | 9488 ft | 97 kts | 282° |
| 2026-04-20 04:05 | -27.23352 | 151.63970 | 9629 ft | 97 kts | 282° |
| 2026-04-20 04:06 | -27.23105 | 151.63266 | 9768 ft | 97 kts | 281° |
| 2026-04-20 04:06 | -27.22852 | 151.62567 | 9911 ft | 96 kts | 282° |
| 2026-04-20 04:06 | -27.22593 | 151.61866 | 10042 ft | 96 kts | 281° |
| 2026-04-20 04:06 | -27.22748 | 151.61278 | 10274 ft | 81 kts | 206° |
| 2026-04-20 04:07 | -27.23271 | 151.61076 | 10400 ft | 79 kts | 195° |
| 2026-04-20 04:07 | -27.23795 | 151.60924 | 10523 ft | 77 kts | 193° |
| 2026-04-20 04:07 | -27.24315 | 151.60776 | 10647 ft | 77 kts | 193° |
| 2026-04-20 04:07 | -27.24830 | 151.60629 | 10772 ft | 76 kts | 193° |
| 2026-04-20 04:08 | -27.25343 | 151.60483 | 10896 ft | 76 kts | 193° |
| 2026-04-20 04:08 | -27.25853 | 151.60340 | 11015 ft | 75 kts | 193° |
| 2026-04-20 04:08 | -27.26360 | 151.60199 | 11134 ft | 75 kts | 193° |
| 2026-04-20 04:08 | -27.26867 | 151.60059 | 11251 ft | 75 kts | 193° |
| 2026-04-20 04:09 | -27.27372 | 151.59920 | 11362 ft | 75 kts | 193° |
| 2026-04-20 04:09 | -27.27817 | 151.60134 | 11398 ft | 85 kts | 123° |
| 2026-04-20 04:09 | -27.27879 | 151.60827 | 11437 ft | 90 kts | 104° |
| 2026-04-20 04:09 | -27.27886 | 151.61537 | 11521 ft | 91 kts | 102° |
| 2026-04-20 04:10 | -27.27890 | 151.62250 | 11614 ft | 91 kts | 102° |
| 2026-04-20 04:10 | -27.27893 | 151.62963 | 11701 ft | 91 kts | 102° |
| 2026-04-20 04:10 | -27.27897 | 151.63678 | 11789 ft | 91 kts | 102° |
| 2026-04-20 04:10 | -27.27902 | 151.64393 | 11874 ft | 92 kts | 102° |
| 2026-04-20 04:11 | -27.27909 | 151.65110 | 11958 ft | 92 kts | 102° |
| 2026-04-20 04:11 | -27.27916 | 151.65826 | 12040 ft | 92 kts | 102° |
| 2026-04-20 04:11 | -27.27922 | 151.66543 | 12119 ft | 92 kts | 102° |
| 2026-04-20 04:11 | -27.27929 | 151.67260 | 12196 ft | 92 kts | 102° |
| 2026-04-20 04:12 | -27.27935 | 151.67975 | 12276 ft | 91 kts | 102° |
| 2026-04-20 04:12 | -27.27942 | 151.68690 | 12366 ft | 92 kts | 102° |
| 2026-04-20 04:12 | -27.27949 | 151.69413 | 12491 ft | 93 kts | 102° |
| 2026-04-20 04:12 | -27.27958 | 151.70142 | 12612 ft | 94 kts | 102° |
| 2026-04-20 04:13 | -27.27969 | 151.70878 | 12727 ft | 95 kts | 102° |
| 2026-04-20 04:13 | -27.27982 | 151.71625 | 12840 ft | 95 kts | 102° |
| 2026-04-20 04:13 | -27.27995 | 151.72371 | 12954 ft | 96 kts | 102° |
| 2026-04-20 04:13 | -27.28010 | 151.73123 | 13061 ft | 96 kts | 102° |
| 2026-04-20 04:14 | -27.28025 | 151.73865 | 13163 ft | 96 kts | 102° |
| 2026-04-20 04:14 | -27.28040 | 151.74630 | 13269 ft | 97 kts | 102° |
| 2026-04-20 04:14 | -27.28056 | 151.75377 | 13364 ft | 97 kts | 102° |
| 2026-04-20 04:14 | -27.28071 | 151.76133 | 13462 ft | 97 kts | 102° |
| 2026-04-20 04:15 | -27.28089 | 151.76891 | 13557 ft | 97 kts | 103° |
| 2026-04-20 04:15 | -27.28106 | 151.77651 | 13650 ft | 97 kts | 103° |
| 2026-04-20 04:15 | -27.28121 | 151.78409 | 13739 ft | 97 kts | 102° |
| 2026-04-20 04:15 | -27.28136 | 151.79168 | 13829 ft | 97 kts | 102° |
| 2026-04-20 04:16 | -27.28150 | 151.79924 | 13902 ft | 97 kts | 100° |
| 2026-04-20 04:16 | -27.27744 | 151.80537 | 13879 ft | 109 kts | 22° |
| 2026-04-20 04:16 | -27.27022 | 151.80768 | 13942 ft | 108 kts | 13° |
| 2026-04-20 04:16 | -27.26283 | 151.80968 | 13981 ft | 111 kts | 12° |
| 2026-04-20 04:17 | -27.25523 | 151.81170 | 13992 ft | 114 kts | 12° |
| 2026-04-20 04:17 | -27.24738 | 151.81384 | 13993 ft | 117 kts | 13° |
| 2026-04-20 04:17 | -27.23935 | 151.81601 | 13978 ft | 120 kts | 13° |
| 2026-04-20 04:17 | -27.22989 | 151.81851 | 13022 ft | 161 kts | 12° |
| 2026-04-20 04:18 | -27.21905 | 151.82136 | 12763 ft | 152 kts | 12° |
| 2026-04-20 04:18 | -27.20835 | 151.82410 | 11915 ft | 166 kts | 13° |
| 2026-04-20 04:18 | -27.20112 | 151.82590 | 11929 ft | 155 kts | 12° |
| 2026-04-20 04:18 | -27.19098 | 151.82846 | 11955 ft | 144 kts | 12° |
| 2026-04-20 04:19 | -27.17819 | 151.83168 | 11850 ft | 142 kts | 13° |
| 2026-04-20 04:19 | -27.17122 | 151.83342 | 11214 ft | 166 kts | 12° |
| 2026-04-20 04:19 | -27.16049 | 151.83597 | 11209 ft | 150 kts | 12° |
| 2026-04-20 04:19 | -27.15012 | 151.83835 | 11059 ft | 150 kts | 5° |
| 2026-04-20 04:20 | -27.14107 | 151.83411 | 11091 ft | 143 kts | 301° |
| 2026-04-20 04:20 | -27.13691 | 151.82430 | 11079 ft | 137 kts | 284° |
| 2026-04-20 04:20 | -27.13363 | 151.81434 | 11017 ft | 133 kts | 282° |
| 2026-04-20 04:20 | -27.13061 | 151.80490 | 10949 ft | 124 kts | 281° |
| 2026-04-20 04:21 | -27.12771 | 151.79610 | 10912 ft | 116 kts | 282° |
| 2026-04-20 04:21 | -27.12491 | 151.78788 | 10921 ft | 109 kts | 281° |
| 2026-04-20 04:21 | -27.12219 | 151.78013 | 10929 ft | 105 kts | 281° |
| 2026-04-20 04:21 | -27.11954 | 151.77270 | 10946 ft | 102 kts | 281° |
| 2026-04-20 04:22 | -27.11690 | 151.76535 | 10955 ft | 100 kts | 281° |
| 2026-04-20 04:22 | -27.11435 | 151.75823 | 10952 ft | 100 kts | 281° |
| 2026-04-20 04:22 | -27.11168 | 151.75080 | 10878 ft | 106 kts | 281° |
| 2026-04-20 04:22 | -27.10862 | 151.74105 | 9994 ft | 160 kts | 282° |
| 2026-04-20 04:23 | -27.10540 | 151.72932 | 9810 ft | 142 kts | 271° |
| 2026-04-20 04:23 | -27.10866 | 151.72062 | 9923 ft | 115 kts | 209° |
| 2026-04-20 04:23 | -27.11566 | 151.71782 | 9911 ft | 105 kts | 195° |
| 2026-04-20 04:23 | -27.12267 | 151.71589 | 9890 ft | 102 kts | 193° |
| 2026-04-20 04:24 | -27.12944 | 151.71417 | 9886 ft | 98 kts | 192° |
| 2026-04-20 04:24 | -27.13602 | 151.71248 | 9888 ft | 96 kts | 192° |
| 2026-04-20 04:24 | -27.14250 | 151.71079 | 9887 ft | 95 kts | 192° |
| 2026-04-20 04:24 | -27.14890 | 151.70915 | 9895 ft | 94 kts | 192° |
| 2026-04-20 04:25 | -27.15526 | 151.70754 | 9894 ft | 94 kts | 192° |
| 2026-04-20 04:25 | -27.16161 | 151.70592 | 9898 ft | 94 kts | 192° |
| 2026-04-20 04:25 | -27.16801 | 151.70429 | 9898 ft | 94 kts | 192° |
| 2026-04-20 04:25 | -27.17441 | 151.70266 | 9897 ft | 94 kts | 192° |
| 2026-04-20 04:26 | -27.18078 | 151.70106 | 9902 ft | 94 kts | 192° |
| 2026-04-20 04:26 | -27.18718 | 151.69947 | 9898 ft | 94 kts | 192° |
| 2026-04-20 04:26 | -27.19480 | 151.69757 | 9302 ft | 138 kts | 192° |
| 2026-04-20 04:26 | -27.20386 | 151.69527 | 9224 ft | 124 kts | 192° |
| 2026-04-20 04:27 | -27.21177 | 151.69331 | 9237 ft | 110 kts | 192° |
| 2026-04-20 04:27 | -27.21898 | 151.69150 | 9262 ft | 103 kts | 192° |
| 2026-04-20 04:27 | -27.22582 | 151.68978 | 9285 ft | 99 kts | 192° |
| 2026-04-20 04:27 | -27.23250 | 151.68813 | 9298 ft | 98 kts | 192° |
| 2026-04-20 04:28 | -27.23915 | 151.68651 | 9311 ft | 98 kts | 192° |
| 2026-04-20 04:28 | -27.24583 | 151.68488 | 9312 ft | 98 kts | 192° |
| 2026-04-20 04:28 | -27.25254 | 151.68327 | 9314 ft | 99 kts | 192° |
| 2026-04-20 04:28 | -27.25929 | 151.68167 | 9314 ft | 99 kts | 192° |
| 2026-04-20 04:29 | -27.26610 | 151.68003 | 9188 ft | 108 kts | 192° |
| 2026-04-20 04:29 | -27.27536 | 151.67778 | 8211 ft | 161 kts | 192° |
| 2026-04-20 04:29 | -27.28603 | 151.67514 | 7979 ft | 144 kts | 192° |
| 2026-04-20 04:29 | -27.29504 | 151.67291 | 8021 ft | 123 kts | 192° |
| 2026-04-20 04:30 | -27.30294 | 151.67095 | 8074 ft | 111 kts | 192° |
| 2026-04-20 04:30 | -27.31033 | 151.67037 | 8091 ft | 107 kts | 159° |
| 2026-04-20 04:30 | -27.31410 | 151.67730 | 8067 ft | 109 kts | 106° |
| 2026-04-20 04:30 | -27.31509 | 151.68567 | 8102 ft | 107 kts | 102° |
| 2026-04-20 04:31 | -27.31583 | 151.69393 | 8127 ft | 108 kts | 102° |
| 2026-04-20 04:31 | -27.31661 | 151.70241 | 8137 ft | 110 kts | 101° |
| 2026-04-20 04:31 | -27.31740 | 151.71101 | 8138 ft | 112 kts | 101° |
| 2026-04-20 04:31 | -27.31822 | 151.71974 | 8137 ft | 113 kts | 102° |
| 2026-04-20 04:32 | -27.31904 | 151.72852 | 8133 ft | 113 kts | 101° |
| 2026-04-20 04:32 | -27.31986 | 151.73734 | 8135 ft | 113 kts | 101° |
| 2026-04-20 04:32 | -27.32066 | 151.74618 | 8132 ft | 114 kts | 101° |
| 2026-04-20 04:32 | -27.32149 | 151.75506 | 8133 ft | 114 kts | 101° |
| 2026-04-20 04:33 | -27.32235 | 151.76393 | 8135 ft | 114 kts | 102° |
| 2026-04-20 04:33 | -27.32322 | 151.77292 | 7981 ft | 122 kts | 102° |
| 2026-04-20 04:33 | -27.32213 | 151.78397 | 7031 ft | 165 kts | 59° |
| 2026-04-20 04:33 | -27.31318 | 151.79025 | 6979 ft | 144 kts | 17° |
| 2026-04-20 04:34 | -27.30374 | 151.79284 | 6926 ft | 135 kts | 12° |
| 2026-04-20 04:34 | -27.29475 | 151.79495 | 6921 ft | 129 kts | 12° |
| 2026-04-20 04:34 | -27.28609 | 151.79692 | 6927 ft | 125 kts | 11° |
| 2026-04-20 04:34 | -27.27765 | 151.79886 | 6933 ft | 122 kts | 12° |
| 2026-04-20 04:35 | -27.26936 | 151.80078 | 6938 ft | 122 kts | 11° |
| 2026-04-20 04:35 | -27.26077 | 151.80278 | 6573 ft | 142 kts | 12° |
| 2026-04-20 04:35 | -27.24993 | 151.80529 | 6027 ft | 157 kts | 12° |
| 2026-04-20 04:35 | -27.24002 | 151.80757 | 6058 ft | 137 kts | 11° |
| 2026-04-20 04:36 | -27.22264 | 151.81143 | 6128 ft | 122 kts | 0° |
| 2026-04-20 04:36 | -27.21557 | 151.80653 | 5824 ft | 139 kts | 298° |
| 2026-04-20 04:36 | -27.21194 | 151.79511 | 4826 ft | 165 kts | 284° |
| 2026-04-20 04:37 | -27.20920 | 151.78348 | 4826 ft | 142 kts | 283° |
| 2026-04-20 04:37 | -27.20691 | 151.77344 | 4909 ft | 125 kts | 282° |
| 2026-04-20 04:37 | -27.20479 | 151.76440 | 5037 ft | 115 kts | 282° |
| 2026-04-20 04:37 | -27.20278 | 151.75590 | 5127 ft | 112 kts | 283° |
| 2026-04-20 04:38 | -27.20083 | 151.74744 | 5167 ft | 113 kts | 282° |
| 2026-04-20 04:38 | -27.19886 | 151.73876 | 5185 ft | 116 kts | 282° |
| 2026-04-20 04:38 | -27.19678 | 151.72983 | 5184 ft | 120 kts | 282° |
| 2026-04-20 04:38 | -27.19467 | 151.72066 | 5177 ft | 123 kts | 282° |
| 2026-04-20 04:39 | -27.19254 | 151.71134 | 5172 ft | 124 kts | 282° |
| 2026-04-20 04:39 | -27.19040 | 151.70198 | 5164 ft | 124 kts | 283° |
| 2026-04-20 04:39 | -27.18830 | 151.69258 | 5164 ft | 125 kts | 282° |
| 2026-04-20 04:39 | -27.18616 | 151.68314 | 5157 ft | 124 kts | 282° |
| 2026-04-20 04:40 | -27.18401 | 151.67376 | 5160 ft | 124 kts | 282° |
| 2026-04-20 04:40 | -27.18187 | 151.66431 | 5158 ft | 125 kts | 282° |
| 2026-04-20 04:40 | -27.17973 | 151.65493 | 5164 ft | 124 kts | 282° |
| 2026-04-20 04:40 | -27.17997 | 151.64576 | 5168 ft | 121 kts | 237° |
| 2026-04-20 04:41 | -27.18738 | 151.64214 | 5128 ft | 125 kts | 173° |
| 2026-04-20 04:41 | -27.19499 | 151.64653 | 5054 ft | 125 kts | 149° |
| 2026-04-20 04:41 | -27.20345 | 151.65296 | 4114 ft | 163 kts | 147° |
| 2026-04-20 04:41 | -27.21244 | 151.66011 | 3977 ft | 146 kts | 146° |
| 2026-04-20 04:42 | -27.22016 | 151.66640 | 4065 ft | 130 kts | 146° |
| 2026-04-20 04:42 | -27.22725 | 151.67218 | 4119 ft | 123 kts | 147° |
| 2026-04-20 04:42 | -27.23410 | 151.67775 | 4152 ft | 121 kts | 146° |
| 2026-04-20 04:42 | -27.24099 | 151.68335 | 4184 ft | 123 kts | 146° |
| 2026-04-20 04:43 | -27.24797 | 151.68899 | 4194 ft | 124 kts | 147° |
| 2026-04-20 04:43 | -27.25504 | 151.69469 | 4185 ft | 126 kts | 147° |
| 2026-04-20 04:43 | -27.26204 | 151.70040 | 4190 ft | 126 kts | 146° |
| 2026-04-20 04:43 | -27.26942 | 151.70637 | 3822 ft | 147 kts | 146° |
| 2026-04-20 04:44 | -27.27850 | 151.71363 | 3349 ft | 157 kts | 146° |
| 2026-04-20 04:44 | -27.28683 | 151.72033 | 3410 ft | 139 kts | 147° |
| 2026-04-20 04:44 | -27.29435 | 151.72644 | 3458 ft | 129 kts | 146° |
| 2026-04-20 04:44 | -27.30154 | 151.73226 | 3487 ft | 126 kts | 146° |
| 2026-04-20 04:45 | -27.30866 | 151.73796 | 3510 ft | 125 kts | 146° |
| 2026-04-20 04:45 | -27.31578 | 151.74365 | 3513 ft | 126 kts | 146° |
| 2026-04-20 04:45 | -27.32300 | 151.74941 | 3517 ft | 128 kts | 146° |
| 2026-04-20 04:45 | -27.33027 | 151.75521 | 3519 ft | 128 kts | 146° |
| 2026-04-20 04:46 | -27.33757 | 151.76105 | 3508 ft | 129 kts | 147° |
| 2026-04-20 04:46 | -27.34482 | 151.76686 | 3510 ft | 128 kts | 147° |
| 2026-04-20 04:46 | -27.35206 | 151.77271 | 3510 ft | 128 kts | 146° |
| 2026-04-20 04:46 | -27.35934 | 151.77856 | 3522 ft | 129 kts | 146° |
| 2026-04-20 04:47 | -27.36664 | 151.78439 | 3517 ft | 128 kts | 147° |
| 2026-04-20 04:47 | -27.37392 | 151.79022 | 3524 ft | 129 kts | 146° |
| 2026-04-20 04:47 | -27.38121 | 151.79603 | 3518 ft | 128 kts | 146° |
| 2026-04-20 04:47 | -27.38851 | 151.80186 | 3527 ft | 129 kts | 146° |
| 2026-04-20 04:48 | -27.39586 | 151.80770 | 3517 ft | 130 kts | 146° |
| 2026-04-20 04:48 | -27.40427 | 151.81077 | 3404 ft | 138 kts | 194° |
| 2026-04-20 04:48 | -27.41061 | 151.80195 | 2947 ft | 159 kts | 246° |
| 2026-04-20 04:48 | -27.41413 | 151.79105 | 2751 ft | 141 kts | 250° |
| 2026-04-20 04:49 | -27.41704 | 151.78093 | 2593 ft | 133 kts | 257° |
| 2026-04-20 04:49 | -27.41628 | 151.77062 | 2417 ft | 130 kts | 278° |
| 2026-04-20 04:49 | -27.41468 | 151.76111 | 2292 ft | 121 kts | 278° |
| 2026-04-20 04:49 | -27.41304 | 151.75157 | 1938 ft | 122 kts | 278° |
| 2026-04-20 04:50 | -27.41168 | 151.74223 | 1672 ft | 120 kts | 274° |
| 2026-04-20 04:50 | -27.41058 | 151.73449 | 1395 ft | 78 kts | 276° |
| 2026-04-20 04:50 | -27.41001 | 151.73122 | 1360 ft | 22 kts | 270° |
| 2026-04-20 04:50 | -27.40979 | 151.72972 | 1350 ft | 18 kts | 258° |
| 2026-04-20 04:51 | -27.40984 | 151.72874 | 1348 ft | 7 kts | 208° |
| 2026-04-20 04:51 | -27.41080 | 151.72842 | 1363 ft | 21 kts | 172° |
| 2026-04-20 04:51 | -27.41151 | 151.73009 | 1360 ft | 37 kts | 105° |
| 2026-04-20 04:51 | -27.41196 | 151.73297 | 1355 ft | 28 kts | 110° |
| 2026-04-20 04:52 | -27.41220 | 151.73435 | 1348 ft | 11 kts | 153° |
| 2026-04-20 04:52 | -27.41268 | 151.73450 | 1354 ft | 15 kts | 194° |
| 2026-04-20 04:52 | -27.41361 | 151.73468 | 1353 ft | 11 kts | 35° |
| 2026-04-20 04:52 | -27.41359 | 151.73507 | 1350 ft | 3 kts | 13° |
| 2026-04-20 04:53 | -27.41344 | 151.73512 | 1349 ft | 2 kts | 8° |
| 2026-04-20 04:53 | -27.41340 | 151.73512 | 1345 ft | 0 kts | 9° |